sensor_id;sensor_type;location;lat;lon;timestamp;temperature;humidity
56729;DHT22;42612;52.232;7.560;2023-03-23T00:01:22;14.50;67.30
56729;DHT22;42612;52.232;7.560;2023-03-23T00:03:50;14.50;67.20
56729;DHT22;42612;52.232;7.560;2023-03-23T00:06:18;14.50;67.20
56729;DHT22;42612;52.232;7.560;2023-03-23T00:08:47;14.60;67.20
56729;DHT22;42612;52.232;7.560;2023-03-23T00:11:19;14.50;67.20
56729;DHT22;42612;52.232;7.560;2023-03-23T00:13:47;14.60;67.20
56729;DHT22;42612;52.232;7.560;2023-03-23T00:16:17;14.60;67.20
56729;DHT22;42612;52.232;7.560;2023-03-23T00:18:55;14.60;67.10
56729;DHT22;42612;52.232;7.560;2023-03-23T00:21:23;14.60;67.10
56729;DHT22;42612;52.232;7.560;2023-03-23T00:24:00;14.60;67.10
56729;DHT22;42612;52.232;7.560;2023-03-23T00:26:30;14.60;67.10
56729;DHT22;42612;52.232;7.560;2023-03-23T00:29:03;14.60;67.00
56729;DHT22;42612;52.232;7.560;2023-03-23T00:31:30;14.60;67.00
56729;DHT22;42612;52.232;7.560;2023-03-23T00:34:03;14.60;67.00
56729;DHT22;42612;52.232;7.560;2023-03-23T00:36:33;14.60;67.30
56729;DHT22;42612;52.232;7.560;2023-03-23T00:39:01;14.60;67.40
56729;DHT22;42612;52.232;7.560;2023-03-23T00:41:28;14.60;67.10
56729;DHT22;42612;52.232;7.560;2023-03-23T00:43:58;14.60;67.10
56729;DHT22;42612;52.232;7.560;2023-03-23T00:46:27;14.60;67.20
56729;DHT22;42612;52.232;7.560;2023-03-23T00:48:53;14.60;67.00
56729;DHT22;42612;52.232;7.560;2023-03-23T00:51:20;14.60;67.00
56729;DHT22;42612;52.232;7.560;2023-03-23T00:53:46;14.60;67.00
56729;DHT22;42612;52.232;7.560;2023-03-23T00:56:13;14.70;67.70
56729;DHT22;42612;52.232;7.560;2023-03-23T00:58:39;14.60;66.80
56729;DHT22;42612;52.232;7.560;2023-03-23T01:01:05;14.60;66.80
56729;DHT22;42612;52.232;7.560;2023-03-23T01:03:32;14.60;66.90
56729;DHT22;42612;52.232;7.560;2023-03-23T01:06:05;14.60;66.70
56729;DHT22;42612;52.232;7.560;2023-03-23T01:08:33;14.60;66.90
56729;DHT22;42612;52.232;7.560;2023-03-23T01:11:05;14.60;66.70
56729;DHT22;42612;52.232;7.560;2023-03-23T01:13:32;14.70;66.90
56729;DHT22;42612;52.232;7.560;2023-03-23T01:15:58;14.70;66.70
56729;DHT22;42612;52.232;7.560;2023-03-23T01:18:23;14.70;66.80
56729;DHT22;42612;52.232;7.560;2023-03-23T01:20:49;14.70;66.70
56729;DHT22;42612;52.232;7.560;2023-03-23T01:23:15;14.70;66.70
56729;DHT22;42612;52.232;7.560;2023-03-23T01:25:41;14.70;66.60
56729;DHT22;42612;52.232;7.560;2023-03-23T01:28:06;14.70;66.60
56729;DHT22;42612;52.232;7.560;2023-03-23T01:30:32;14.70;66.60
56729;DHT22;42612;52.232;7.560;2023-03-23T01:32:58;14.70;66.50
56729;DHT22;42612;52.232;7.560;2023-03-23T01:35:23;14.70;66.50
56729;DHT22;42612;52.232;7.560;2023-03-23T01:37:49;14.70;66.50
56729;DHT22;42612;52.232;7.560;2023-03-23T01:40:16;14.70;66.50
56729;DHT22;42612;52.232;7.560;2023-03-23T01:42:41;14.70;66.50
56729;DHT22;42612;52.232;7.560;2023-03-23T01:50:28;14.70;66.60
56729;DHT22;42612;52.232;7.560;2023-03-23T01:52:57;14.70;66.40
56729;DHT22;42612;52.232;7.560;2023-03-23T01:55:25;14.70;66.40
56729;DHT22;42612;52.232;7.560;2023-03-23T01:57:54;14.60;66.40
56729;DHT22;42612;52.232;7.560;2023-03-23T02:00:21;14.70;66.50
56729;DHT22;42612;52.232;7.560;2023-03-23T02:02:49;14.60;66.40
56729;DHT22;42612;52.232;7.560;2023-03-23T02:05:20;14.60;66.40
56729;DHT22;42612;52.232;7.560;2023-03-23T02:07:51;14.60;66.90
56729;DHT22;42612;52.232;7.560;2023-03-23T02:10:17;14.60;66.30
56729;DHT22;42612;52.232;7.560;2023-03-23T02:12:43;14.60;66.40
56729;DHT22;42612;52.232;7.560;2023-03-23T02:15:09;14.60;66.40
56729;DHT22;42612;52.232;7.560;2023-03-23T02:17:46;14.60;66.40
56729;DHT22;42612;52.232;7.560;2023-03-23T02:20:29;14.60;66.80
56729;DHT22;42612;52.232;7.560;2023-03-23T02:26:05;14.60;66.80
56729;DHT22;42612;52.232;7.560;2023-03-23T02:35:08;14.60;66.80
56729;DHT22;42612;52.232;7.560;2023-03-23T02:37:39;14.60;66.60
56729;DHT22;42612;52.232;7.560;2023-03-23T02:40:21;14.60;66.40
56729;DHT22;42612;52.232;7.560;2023-03-23T02:42:57;14.60;66.60
56729;DHT22;42612;52.232;7.560;2023-03-23T02:45:27;14.60;66.40
56729;DHT22;42612;52.232;7.560;2023-03-23T02:47:55;14.60;66.40
56729;DHT22;42612;52.232;7.560;2023-03-23T02:50:23;14.60;66.30
56729;DHT22;42612;52.232;7.560;2023-03-23T02:52:53;14.60;66.40
56729;DHT22;42612;52.232;7.560;2023-03-23T02:55:21;14.60;66.30
56729;DHT22;42612;52.232;7.560;2023-03-23T02:57:52;14.60;66.30
56729;DHT22;42612;52.232;7.560;2023-03-23T03:00:18;14.60;66.30
56729;DHT22;42612;52.232;7.560;2023-03-23T03:02:48;14.60;66.20
56729;DHT22;42612;52.232;7.560;2023-03-23T03:05:41;14.60;66.20
56729;DHT22;42612;52.232;7.560;2023-03-23T03:16:26;14.70;66.40
56729;DHT22;42612;52.232;7.560;2023-03-23T03:19:25;14.60;66.00
56729;DHT22;42612;52.232;7.560;2023-03-23T03:21:54;14.60;66.30
56729;DHT22;42612;52.232;7.560;2023-03-23T03:24:24;14.60;66.00
56729;DHT22;42612;52.232;7.560;2023-03-23T03:26:53;14.60;66.00
56729;DHT22;42612;52.232;7.560;2023-03-23T03:29:26;14.60;66.00
56729;DHT22;42612;52.232;7.560;2023-03-23T03:31:57;14.60;66.00
56729;DHT22;42612;52.232;7.560;2023-03-23T03:34:24;14.70;66.00
56729;DHT22;42612;52.232;7.560;2023-03-23T03:36:53;14.60;65.90
56729;DHT22;42612;52.232;7.560;2023-03-23T03:39:20;14.70;65.90
56729;DHT22;42612;52.232;7.560;2023-03-23T03:41:47;14.60;65.90
56729;DHT22;42612;52.232;7.560;2023-03-23T03:44:13;14.70;65.90
56729;DHT22;42612;52.232;7.560;2023-03-23T03:46:40;14.70;65.90
56729;DHT22;42612;52.232;7.560;2023-03-23T03:49:09;14.70;66.00
56729;DHT22;42612;52.232;7.560;2023-03-23T03:51:38;14.70;65.90
56729;DHT22;42612;52.232;7.560;2023-03-23T03:54:05;14.70;65.90
56729;DHT22;42612;52.232;7.560;2023-03-23T03:56:31;14.70;65.90
56729;DHT22;42612;52.232;7.560;2023-03-23T03:59:01;14.70;65.90
56729;DHT22;42612;52.232;7.560;2023-03-23T04:01:27;14.70;65.80
56729;DHT22;42612;52.232;7.560;2023-03-23T04:03:54;14.70;65.80
56729;DHT22;42612;52.232;7.560;2023-03-23T04:06:20;14.70;65.80
56729;DHT22;42612;52.232;7.560;2023-03-23T04:08:46;14.70;65.70
56729;DHT22;42612;52.232;7.560;2023-03-23T04:11:13;14.70;65.60
56729;DHT22;42612;52.232;7.560;2023-03-23T04:13:40;14.80;65.60
56729;DHT22;42612;52.232;7.560;2023-03-23T04:16:06;14.80;66.50
56729;DHT22;42612;52.232;7.560;2023-03-23T04:18:33;14.80;65.50
56729;DHT22;42612;52.232;7.560;2023-03-23T04:21:01;14.90;65.60
56729;DHT22;42612;52.232;7.560;2023-03-23T04:23:29;14.80;65.40
56729;DHT22;42612;52.232;7.560;2023-03-23T04:25:58;14.90;65.40
56729;DHT22;42612;52.232;7.560;2023-03-23T04:28:25;14.90;65.40
56729;DHT22;42612;52.232;7.560;2023-03-23T04:30:54;14.90;65.40
56729;DHT22;42612;52.232;7.560;2023-03-23T04:33:24;14.90;65.40
56729;DHT22;42612;52.232;7.560;2023-03-23T04:35:56;15.00;65.30
56729;DHT22;42612;52.232;7.560;2023-03-23T04:38:26;15.00;65.30
56729;DHT22;42612;52.232;7.560;2023-03-23T04:40:54;15.00;65.20
56729;DHT22;42612;52.232;7.560;2023-03-23T04:43:22;15.00;65.30
56729;DHT22;42612;52.232;7.560;2023-03-23T04:45:56;15.00;65.30
56729;DHT22;42612;52.232;7.560;2023-03-23T04:48:27;15.00;65.50
56729;DHT22;42612;52.232;7.560;2023-03-23T04:50:55;15.00;65.40
56729;DHT22;42612;52.232;7.560;2023-03-23T04:53:21;15.00;65.40
56729;DHT22;42612;52.232;7.560;2023-03-23T04:55:47;15.00;65.40
56729;DHT22;42612;52.232;7.560;2023-03-23T04:58:15;15.00;65.40
56729;DHT22;42612;52.232;7.560;2023-03-23T05:00:42;15.00;65.40
56729;DHT22;42612;52.232;7.560;2023-03-23T05:03:15;15.00;65.30
56729;DHT22;42612;52.232;7.560;2023-03-23T05:05:42;15.00;65.20
56729;DHT22;42612;52.232;7.560;2023-03-23T05:08:13;15.10;65.30
56729;DHT22;42612;52.232;7.560;2023-03-23T05:10:39;15.10;65.30
56729;DHT22;42612;52.232;7.560;2023-03-23T05:13:05;15.10;65.20
56729;DHT22;42612;52.232;7.560;2023-03-23T05:15:31;15.10;65.20
56729;DHT22;42612;52.232;7.560;2023-03-23T05:17:57;15.10;65.00
56729;DHT22;42612;52.232;7.560;2023-03-23T05:20:22;15.10;65.10
56729;DHT22;42612;52.232;7.560;2023-03-23T05:22:49;15.10;65.10
56729;DHT22;42612;52.232;7.560;2023-03-23T05:25:16;15.10;64.90
56729;DHT22;42612;52.232;7.560;2023-03-23T05:27:46;15.10;64.90
56729;DHT22;42612;52.232;7.560;2023-03-23T05:30:18;15.10;64.90
56729;DHT22;42612;52.232;7.560;2023-03-23T05:32:45;15.00;64.70
56729;DHT22;42612;52.232;7.560;2023-03-23T05:35:16;15.00;64.80
56729;DHT22;42612;52.232;7.560;2023-03-23T05:37:42;15.10;64.70
56729;DHT22;42612;52.232;7.560;2023-03-23T05:40:09;15.00;64.60
56729;DHT22;42612;52.232;7.560;2023-03-23T05:42:37;15.10;64.70
56729;DHT22;42612;52.232;7.560;2023-03-23T05:45:07;15.10;64.60
56729;DHT22;42612;52.232;7.560;2023-03-23T05:47:34;15.10;64.60
56729;DHT22;42612;52.232;7.560;2023-03-23T05:50:00;15.10;64.60
56729;DHT22;42612;52.232;7.560;2023-03-23T05:52:27;15.10;64.50
56729;DHT22;42612;52.232;7.560;2023-03-23T05:54:53;15.00;64.40
56729;DHT22;42612;52.232;7.560;2023-03-23T05:57:19;15.10;64.40
56729;DHT22;42612;52.232;7.560;2023-03-23T05:59:47;15.10;64.40
56729;DHT22;42612;52.232;7.560;2023-03-23T06:02:13;15.10;64.50
56729;DHT22;42612;52.232;7.560;2023-03-23T06:04:39;15.10;64.40
56729;DHT22;42612;52.232;7.560;2023-03-23T06:07:07;15.10;65.00
56729;DHT22;42612;52.232;7.560;2023-03-23T06:09:38;15.10;64.20
56729;DHT22;42612;52.232;7.560;2023-03-23T06:12:04;15.20;64.30
56729;DHT22;42612;52.232;7.560;2023-03-23T06:14:30;15.10;64.30
56729;DHT22;42612;52.232;7.560;2023-03-23T06:16:56;15.10;64.20
56729;DHT22;42612;52.232;7.560;2023-03-23T06:19:22;15.10;64.10
56729;DHT22;42612;52.232;7.560;2023-03-23T06:21:48;15.10;64.10
56729;DHT22;42612;52.232;7.560;2023-03-23T06:24:15;15.10;64.10
56729;DHT22;42612;52.232;7.560;2023-03-23T06:26:40;15.10;64.10
56729;DHT22;42612;52.232;7.560;2023-03-23T06:29:07;15.10;64.10
56729;DHT22;42612;52.232;7.560;2023-03-23T06:31:39;15.10;64.10
56729;DHT22;42612;52.232;7.560;2023-03-23T06:34:07;15.10;64.00
56729;DHT22;42612;52.232;7.560;2023-03-23T06:36:34;15.10;63.80
56729;DHT22;42612;52.232;7.560;2023-03-23T06:39:01;15.10;63.90
56729;DHT22;42612;52.232;7.560;2023-03-23T06:41:33;15.10;63.80
56729;DHT22;42612;52.232;7.560;2023-03-23T06:43:59;15.10;63.90
56729;DHT22;42612;52.232;7.560;2023-03-23T06:46:26;15.10;63.80
56729;DHT22;42612;52.232;7.560;2023-03-23T06:48:54;15.10;64.00
56729;DHT22;42612;52.232;7.560;2023-03-23T06:51:21;15.10;63.90
56729;DHT22;42612;52.232;7.560;2023-03-23T06:53:47;15.10;63.80
56729;DHT22;42612;52.232;7.560;2023-03-23T06:56:12;15.10;63.90
56729;DHT22;42612;52.232;7.560;2023-03-23T06:58:39;15.20;63.90
56729;DHT22;42612;52.232;7.560;2023-03-23T07:01:05;15.10;63.80
56729;DHT22;42612;52.232;7.560;2023-03-23T07:03:32;15.20;63.90
56729;DHT22;42612;52.232;7.560;2023-03-23T07:05:58;15.30;63.90
56729;DHT22;42612;52.232;7.560;2023-03-23T07:08:25;15.20;63.70
56729;DHT22;42612;52.232;7.560;2023-03-23T07:10:52;15.20;63.60
56729;DHT22;42612;52.232;7.560;2023-03-23T07:13:19;15.30;63.70
56729;DHT22;42612;52.232;7.560;2023-03-23T07:15:45;15.20;63.50
56729;DHT22;42612;52.232;7.560;2023-03-23T07:18:11;15.30;63.60
56729;DHT22;42612;52.232;7.560;2023-03-23T07:20:37;15.30;63.80
56729;DHT22;42612;52.232;7.560;2023-03-23T07:23:03;15.30;63.80
56729;DHT22;42612;52.232;7.560;2023-03-23T07:26:04;15.30;63.70
56729;DHT22;42612;52.232;7.560;2023-03-23T07:28:30;15.30;63.40
56729;DHT22;42612;52.232;7.560;2023-03-23T07:30:55;15.30;63.70
56729;DHT22;42612;52.232;7.560;2023-03-23T07:33:21;15.30;63.60
56729;DHT22;42612;52.232;7.560;2023-03-23T07:35:47;15.30;63.50
56729;DHT22;42612;52.232;7.560;2023-03-23T07:38:14;15.40;63.60
56729;DHT22;42612;52.232;7.560;2023-03-23T07:40:40;15.40;63.50
56729;DHT22;42612;52.232;7.560;2023-03-23T07:43:06;15.40;63.40
56729;DHT22;42612;52.232;7.560;2023-03-23T07:45:33;15.50;63.40
56729;DHT22;42612;52.232;7.560;2023-03-23T07:47:59;15.40;63.40
56729;DHT22;42612;52.232;7.560;2023-03-23T07:50:25;15.50;63.50
56729;DHT22;42612;52.232;7.560;2023-03-23T07:52:54;15.50;63.40
56729;DHT22;42612;52.232;7.560;2023-03-23T07:55:21;15.50;63.20
56729;DHT22;42612;52.232;7.560;2023-03-23T07:57:50;15.50;63.20
56729;DHT22;42612;52.232;7.560;2023-03-23T08:00:18;15.50;63.90
56729;DHT22;42612;52.232;7.560;2023-03-23T08:02:49;15.50;63.10
56729;DHT22;42612;52.232;7.560;2023-03-23T08:05:17;15.50;63.00
56729;DHT22;42612;52.232;7.560;2023-03-23T08:07:44;15.50;63.90
56729;DHT22;42612;52.232;7.560;2023-03-23T08:10:11;15.50;63.10
56729;DHT22;42612;52.232;7.560;2023-03-23T08:12:39;15.50;63.00
56729;DHT22;42612;52.232;7.560;2023-03-23T08:15:07;15.50;63.50
56729;DHT22;42612;52.232;7.560;2023-03-23T08:17:35;15.50;62.90
56729;DHT22;42612;52.232;7.560;2023-03-23T08:20:02;15.50;62.90
56729;DHT22;42612;52.232;7.560;2023-03-23T08:22:34;15.50;63.00
56729;DHT22;42612;52.232;7.560;2023-03-23T08:25:02;15.50;63.10
56729;DHT22;42612;52.232;7.560;2023-03-23T08:27:29;15.50;63.00
56729;DHT22;42612;52.232;7.560;2023-03-23T08:29:55;15.50;63.00
56729;DHT22;42612;52.232;7.560;2023-03-23T08:32:21;15.50;63.00
56729;DHT22;42612;52.232;7.560;2023-03-23T08:34:46;15.50;62.80
56729;DHT22;42612;52.232;7.560;2023-03-23T08:37:12;15.50;62.70
56729;DHT22;42612;52.232;7.560;2023-03-23T08:39:38;15.50;62.80
56729;DHT22;42612;52.232;7.560;2023-03-23T08:42:04;15.60;62.80
56729;DHT22;42612;52.232;7.560;2023-03-23T08:44:29;15.60;62.60
56729;DHT22;42612;52.232;7.560;2023-03-23T08:46:55;15.60;62.20
56729;DHT22;42612;52.232;7.560;2023-03-23T08:49:24;15.60;62.30
56729;DHT22;42612;52.232;7.560;2023-03-23T08:51:51;15.60;62.30
56729;DHT22;42612;52.232;7.560;2023-03-23T08:54:16;15.60;62.20
56729;DHT22;42612;52.232;7.560;2023-03-23T08:56:43;15.70;62.10
56729;DHT22;42612;52.232;7.560;2023-03-23T08:59:12;15.60;62.10
56729;DHT22;42612;52.232;7.560;2023-03-23T09:01:37;15.60;62.00
56729;DHT22;42612;52.232;7.560;2023-03-23T09:04:03;15.60;62.00
56729;DHT22;42612;52.232;7.560;2023-03-23T09:06:30;15.60;61.90
56729;DHT22;42612;52.232;7.560;2023-03-23T09:08:55;15.60;61.90
56729;DHT22;42612;52.232;7.560;2023-03-23T09:11:22;15.60;61.90
56729;DHT22;42612;52.232;7.560;2023-03-23T09:13:47;15.50;61.70
56729;DHT22;42612;52.232;7.560;2023-03-23T09:16:13;15.50;61.80
56729;DHT22;42612;52.232;7.560;2023-03-23T09:18:39;15.50;61.50
56729;DHT22;42612;52.232;7.560;2023-03-23T09:21:06;15.40;61.00
56729;DHT22;42612;52.232;7.560;2023-03-23T09:23:32;15.30;60.50
56729;DHT22;42612;52.232;7.560;2023-03-23T09:26:00;15.20;60.70
56729;DHT22;42612;52.232;7.560;2023-03-23T09:28:27;15.10;60.40
56729;DHT22;42612;52.232;7.560;2023-03-23T09:30:55;15.00;60.80
56729;DHT22;42612;52.232;7.560;2023-03-23T09:33:23;14.80;61.10
56729;DHT22;42612;52.232;7.560;2023-03-23T09:35:49;14.70;61.50
56729;DHT22;42612;52.232;7.560;2023-03-23T09:38:15;14.60;61.90
56729;DHT22;42612;52.232;7.560;2023-03-23T09:43:24;14.50;62.90
56729;DHT22;42612;52.232;7.560;2023-03-23T09:49:13;14.30;64.20
56729;DHT22;42612;52.232;7.560;2023-03-23T09:51:59;14.30;64.20
56729;DHT22;42612;52.232;7.560;2023-03-23T09:54:50;14.30;64.00
56729;DHT22;42612;52.232;7.560;2023-03-23T09:57:28;14.30;64.50
56729;DHT22;42612;52.232;7.560;2023-03-23T10:00:10;14.30;64.20
56729;DHT22;42612;52.232;7.560;2023-03-23T10:08:15;14.20;64.20
56729;DHT22;42612;52.232;7.560;2023-03-23T10:13:53;14.20;64.70
56729;DHT22;42612;52.232;7.560;2023-03-23T10:19:52;14.20;65.60
56729;DHT22;42612;52.232;7.560;2023-03-23T10:22:31;14.20;64.90
56729;DHT22;42612;52.232;7.560;2023-03-23T10:27:53;14.20;65.10
56729;DHT22;42612;52.232;7.560;2023-03-23T10:30:38;14.20;64.90
56729;DHT22;42612;52.232;7.560;2023-03-23T10:33:23;14.20;65.10
56729;DHT22;42612;52.232;7.560;2023-03-23T10:35:59;14.20;65.30
56729;DHT22;42612;52.232;7.560;2023-03-23T10:38:35;14.20;65.10
56729;DHT22;42612;52.232;7.560;2023-03-23T10:41:10;14.20;64.90
56729;DHT22;42612;52.232;7.560;2023-03-23T10:43:38;14.20;65.00
56729;DHT22;42612;52.232;7.560;2023-03-23T10:46:36;14.20;64.80
56729;DHT22;42612;52.232;7.560;2023-03-23T10:49:18;14.30;65.10
56729;DHT22;42612;52.232;7.560;2023-03-23T10:51:56;14.30;64.80
56729;DHT22;42612;52.232;7.560;2023-03-23T10:54:31;14.30;64.90
56729;DHT22;42612;52.232;7.560;2023-03-23T10:57:01;14.30;64.90
56729;DHT22;42612;52.232;7.560;2023-03-23T10:59:50;14.20;64.80
56729;DHT22;42612;52.232;7.560;2023-03-23T11:02:20;14.30;64.90
56729;DHT22;42612;52.232;7.560;2023-03-23T11:05:06;14.30;65.10
56729;DHT22;42612;52.232;7.560;2023-03-23T11:07:38;14.40;65.90
56729;DHT22;42612;52.232;7.560;2023-03-23T11:10:15;14.40;65.40
56729;DHT22;42612;52.232;7.560;2023-03-23T11:12:45;14.50;65.30
56729;DHT22;42612;52.232;7.560;2023-03-23T11:15:28;14.50;64.80
56729;DHT22;42612;52.232;7.560;2023-03-23T11:18:04;14.60;64.60
56729;DHT22;42612;52.232;7.560;2023-03-23T11:20:40;14.60;64.10
56729;DHT22;42612;52.232;7.560;2023-03-23T11:23:20;14.60;63.60
56729;DHT22;42612;52.232;7.560;2023-03-23T11:28:46;14.70;63.60
56729;DHT22;42612;52.232;7.560;2023-03-23T11:31:27;14.70;63.10
56729;DHT22;42612;52.232;7.560;2023-03-23T11:34:16;14.70;63.70
56729;DHT22;42612;52.232;7.560;2023-03-23T11:39:59;14.80;61.60
56729;DHT22;42612;52.232;7.560;2023-03-23T11:45:41;14.80;62.10
56729;DHT22;42612;52.232;7.560;2023-03-23T11:51:45;14.90;62.80
56729;DHT22;42612;52.232;7.560;2023-03-23T11:54:41;14.90;62.50
56729;DHT22;42612;52.232;7.560;2023-03-23T11:57:11;15.10;63.30
56729;DHT22;42612;52.232;7.560;2023-03-23T11:59:38;15.20;63.10
56729;DHT22;42612;52.232;7.560;2023-03-23T12:05:32;15.40;62.30
56729;DHT22;42612;52.232;7.560;2023-03-23T12:14:26;15.80;60.80
56729;DHT22;42612;52.232;7.560;2023-03-23T12:17:51;15.80;60.90
56729;DHT22;42612;52.232;7.560;2023-03-23T12:20:24;15.90;60.50
56729;DHT22;42612;52.232;7.560;2023-03-23T12:24:08;16.00;60.80
56729;DHT22;42612;52.232;7.560;2023-03-23T12:35:47;16.10;59.40
56729;DHT22;42612;52.232;7.560;2023-03-23T12:41:12;16.20;59.30
56729;DHT22;42612;52.232;7.560;2023-03-23T12:44:00;16.20;59.80
56729;DHT22;42612;52.232;7.560;2023-03-23T12:51:51;16.40;59.70
56729;DHT22;42612;52.232;7.560;2023-03-23T12:54:28;16.40;59.40
56729;DHT22;42612;52.232;7.560;2023-03-23T13:00:04;16.40;58.80
56729;DHT22;42612;52.232;7.560;2023-03-23T13:02:47;16.50;58.50
56729;DHT22;42612;52.232;7.560;2023-03-23T13:07:58;16.60;59.10
56729;DHT22;42612;52.232;7.560;2023-03-23T13:10:47;16.60;58.90
56729;DHT22;42612;52.232;7.560;2023-03-23T13:13:39;16.60;58.10
56729;DHT22;42612;52.232;7.560;2023-03-23T13:16:09;16.60;57.80
56729;DHT22;42612;52.232;7.560;2023-03-23T13:22:05;16.70;58.50
56729;DHT22;42612;52.232;7.560;2023-03-23T13:24:46;16.80;58.50
56729;DHT22;42612;52.232;7.560;2023-03-23T13:27:16;16.90;58.50
56729;DHT22;42612;52.232;7.560;2023-03-23T13:29:46;17.00;58.80
56729;DHT22;42612;52.232;7.560;2023-03-23T13:32:19;17.00;58.20
56729;DHT22;42612;52.232;7.560;2023-03-23T13:34:47;17.10;58.10
56729;DHT22;42612;52.232;7.560;2023-03-23T13:37:25;17.30;57.30
56729;DHT22;42612;52.232;7.560;2023-03-23T13:39:52;17.30;57.10
56729;DHT22;42612;52.232;7.560;2023-03-23T13:42:26;17.30;58.00
56729;DHT22;42612;52.232;7.560;2023-03-23T13:45:04;17.40;57.20
56729;DHT22;42612;52.232;7.560;2023-03-23T13:47:43;17.50;57.10
56729;DHT22;42612;52.232;7.560;2023-03-23T14:13:31;17.60;56.40
56729;DHT22;42612;52.232;7.560;2023-03-23T14:16:14;17.60;56.10
56729;DHT22;42612;52.232;7.560;2023-03-23T14:18:52;17.60;56.00
56729;DHT22;42612;52.232;7.560;2023-03-23T14:21:35;17.60;56.40
56729;DHT22;42612;52.232;7.560;2023-03-23T14:24:10;17.60;56.20
56729;DHT22;42612;52.232;7.560;2023-03-23T14:26:43;17.70;56.70
56729;DHT22;42612;52.232;7.560;2023-03-23T14:29:12;17.60;56.30
56729;DHT22;42612;52.232;7.560;2023-03-23T14:31:39;17.60;56.30
56729;DHT22;42612;52.232;7.560;2023-03-23T14:34:14;17.60;56.20
56729;DHT22;42612;52.232;7.560;2023-03-23T14:36:43;17.70;56.10
56729;DHT22;42612;52.232;7.560;2023-03-23T14:41:55;17.60;56.10
56729;DHT22;42612;52.232;7.560;2023-03-23T14:44:31;17.50;56.40
56729;DHT22;42612;52.232;7.560;2023-03-23T14:47:02;17.50;56.30
56729;DHT22;42612;52.232;7.560;2023-03-23T14:49:55;17.50;56.20
56729;DHT22;42612;52.232;7.560;2023-03-23T14:52:26;17.40;56.00
56729;DHT22;42612;52.232;7.560;2023-03-23T14:54:52;17.40;56.40
56729;DHT22;42612;52.232;7.560;2023-03-23T14:57:26;17.40;56.60
56729;DHT22;42612;52.232;7.560;2023-03-23T14:59:54;17.30;56.60
56729;DHT22;42612;52.232;7.560;2023-03-23T15:05:31;17.20;57.10
56729;DHT22;42612;52.232;7.560;2023-03-23T15:08:04;17.10;56.20
56729;DHT22;42612;52.232;7.560;2023-03-23T15:10:32;17.10;57.00
56729;DHT22;42612;52.232;7.560;2023-03-23T15:12:58;17.10;57.30
56729;DHT22;42612;52.232;7.560;2023-03-23T15:15:33;17.00;57.50
56729;DHT22;42612;52.232;7.560;2023-03-23T15:18:01;17.00;57.60
56729;DHT22;42612;52.232;7.560;2023-03-23T15:20:47;16.80;57.40
56729;DHT22;42612;52.232;7.560;2023-03-23T15:23:22;16.70;57.70
56729;DHT22;42612;52.232;7.560;2023-03-23T15:25:53;16.60;58.30
56729;DHT22;42612;52.232;7.560;2023-03-23T15:28:31;16.50;58.30
56729;DHT22;42612;52.232;7.560;2023-03-23T15:31:02;16.40;58.40
56729;DHT22;42612;52.232;7.560;2023-03-23T15:33:39;16.30;59.00
56729;DHT22;42612;52.232;7.560;2023-03-23T15:36:09;16.20;59.90
56729;DHT22;42612;52.232;7.560;2023-03-23T15:38:43;16.20;59.50
56729;DHT22;42612;52.232;7.560;2023-03-23T15:41:31;16.20;59.70
56729;DHT22;42612;52.232;7.560;2023-03-23T15:44:11;16.20;60.40
56729;DHT22;42612;52.232;7.560;2023-03-23T15:46:53;16.20;60.20
56729;DHT22;42612;52.232;7.560;2023-03-23T15:49:27;16.20;60.40
56729;DHT22;42612;52.232;7.560;2023-03-23T15:51:53;16.20;60.00
56729;DHT22;42612;52.232;7.560;2023-03-23T15:54:18;16.20;60.20
56729;DHT22;42612;52.232;7.560;2023-03-23T15:56:44;16.10;60.30
56729;DHT22;42612;52.232;7.560;2023-03-23T15:59:10;16.20;60.50
56729;DHT22;42612;52.232;7.560;2023-03-23T16:01:39;16.10;60.50
56729;DHT22;42612;52.232;7.560;2023-03-23T16:04:10;16.20;60.80
56729;DHT22;42612;52.232;7.560;2023-03-23T16:06:38;16.20;60.90
56729;DHT22;42612;52.232;7.560;2023-03-23T16:09:05;16.20;61.00
56729;DHT22;42612;52.232;7.560;2023-03-23T16:11:35;16.20;61.10
56729;DHT22;42612;52.232;7.560;2023-03-23T16:14:01;16.20;61.20
56729;DHT22;42612;52.232;7.560;2023-03-23T16:16:30;16.30;61.50
56729;DHT22;42612;52.232;7.560;2023-03-23T16:18:59;16.30;61.70
56729;DHT22;42612;52.232;7.560;2023-03-23T16:21:25;16.20;61.50
56729;DHT22;42612;52.232;7.560;2023-03-23T16:23:50;16.30;61.40
56729;DHT22;42612;52.232;7.560;2023-03-23T16:26:16;16.30;61.50
56729;DHT22;42612;52.232;7.560;2023-03-23T16:28:43;16.30;61.50
56729;DHT22;42612;52.232;7.560;2023-03-23T16:31:09;16.30;61.50
56729;DHT22;42612;52.232;7.560;2023-03-23T16:33:34;16.20;61.30
56729;DHT22;42612;52.232;7.560;2023-03-23T16:36:00;16.20;61.40
56729;DHT22;42612;52.232;7.560;2023-03-23T16:38:26;16.20;61.60
56729;DHT22;42612;52.232;7.560;2023-03-23T16:40:52;16.20;61.80
56729;DHT22;42612;52.232;7.560;2023-03-23T16:43:18;16.20;61.90
56729;DHT22;42612;52.232;7.560;2023-03-23T16:45:44;16.20;62.00
56729;DHT22;42612;52.232;7.560;2023-03-23T16:48:12;16.20;62.10
56729;DHT22;42612;52.232;7.560;2023-03-23T16:50:39;16.20;62.40
56729;DHT22;42612;52.232;7.560;2023-03-23T16:53:06;16.20;62.40
56729;DHT22;42612;52.232;7.560;2023-03-23T16:55:32;16.20;62.60
56729;DHT22;42612;52.232;7.560;2023-03-23T16:57:59;16.30;63.20
56729;DHT22;42612;52.232;7.560;2023-03-23T17:00:25;16.30;62.40
56729;DHT22;42612;52.232;7.560;2023-03-23T17:02:52;16.40;62.60
56729;DHT22;42612;52.232;7.560;2023-03-23T17:05:22;16.40;62.40
56729;DHT22;42612;52.232;7.560;2023-03-23T17:07:50;16.50;62.30
56729;DHT22;42612;52.232;7.560;2023-03-23T17:10:16;16.50;62.20
56729;DHT22;42612;52.232;7.560;2023-03-23T17:12:43;16.60;62.10
56729;DHT22;42612;52.232;7.560;2023-03-23T17:15:09;16.60;61.90
56729;DHT22;42612;52.232;7.560;2023-03-23T17:17:36;16.70;61.80
56729;DHT22;42612;52.232;7.560;2023-03-23T17:20:02;16.70;61.60
56729;DHT22;42612;52.232;7.560;2023-03-23T17:22:29;16.70;61.50
56729;DHT22;42612;52.232;7.560;2023-03-23T17:24:55;16.70;61.30
56729;DHT22;42612;52.232;7.560;2023-03-23T17:27:22;16.70;61.20
56729;DHT22;42612;52.232;7.560;2023-03-23T17:29:48;16.60;61.10
56729;DHT22;42612;52.232;7.560;2023-03-23T17:32:14;16.60;61.20
56729;DHT22;42612;52.232;7.560;2023-03-23T17:34:40;16.60;61.20
56729;DHT22;42612;52.232;7.560;2023-03-23T17:37:06;16.50;61.20
56729;DHT22;42612;52.232;7.560;2023-03-23T17:39:32;16.60;62.10
56729;DHT22;42612;52.232;7.560;2023-03-23T17:41:59;16.50;61.40
56729;DHT22;42612;52.232;7.560;2023-03-23T17:44:26;16.50;61.50
56729;DHT22;42612;52.232;7.560;2023-03-23T17:46:52;16.40;61.60
56729;DHT22;42612;52.232;7.560;2023-03-23T17:49:20;16.40;61.60
56729;DHT22;42612;52.232;7.560;2023-03-23T17:51:47;16.40;61.70